sensor_id;sensor_type;location;lat;lon;timestamp;P1;durP1;ratioP1;P2;durP2;ratioP2
24157;SDS011;12316;50.904;4.200;2023-08-07T00:00:35;6.35;;;1.88;;
24157;SDS011;12316;50.904;4.200;2023-08-07T00:03:00;13.25;;;2.90;;
24157;SDS011;12316;50.904;4.200;2023-08-07T00:05:27;8.65;;;2.45;;
24157;SDS011;12316;50.904;4.200;2023-08-07T00:07:53;12.52;;;3.03;;
24157;SDS011;12316;50.904;4.200;2023-08-07T00:10:19;9.07;;;2.92;;
24157;SDS011;12316;50.904;4.200;2023-08-07T00:12:44;5.80;;;2.53;;
24157;SDS011;12316;50.904;4.200;2023-08-07T00:15:10;9.45;;;2.72;;
24157;SDS011;12316;50.904;4.200;2023-08-07T00:17:36;7.75;;;2.40;;
24157;SDS011;12316;50.904;4.200;2023-08-07T00:20:03;6.72;;;2.60;;
24157;SDS011;12316;50.904;4.200;2023-08-07T00:22:29;6.28;;;2.20;;
24157;SDS011;12316;50.904;4.200;2023-08-07T00:24:55;7.90;;;2.63;;
24157;SDS011;12316;50.904;4.200;2023-08-07T00:27:20;8.93;;;2.92;;
24157;SDS011;12316;50.904;4.200;2023-08-07T00:29:46;8.13;;;2.42;;
24157;SDS011;12316;50.904;4.200;2023-08-07T00:32:12;7.15;;;2.78;;
24157;SDS011;12316;50.904;4.200;2023-08-07T00:34:38;7.30;;;2.40;;
24157;SDS011;12316;50.904;4.200;2023-08-07T00:37:03;6.32;;;2.30;;
24157;SDS011;12316;50.904;4.200;2023-08-07T00:39:30;7.22;;;2.58;;
24157;SDS011;12316;50.904;4.200;2023-08-07T00:41:55;10.50;;;2.60;;
24157;SDS011;12316;50.904;4.200;2023-08-07T00:44:21;10.90;;;2.50;;
24157;SDS011;12316;50.904;4.200;2023-08-07T00:46:48;10.50;;;2.95;;
24157;SDS011;12316;50.904;4.200;2023-08-07T00:49:14;8.80;;;2.67;;
24157;SDS011;12316;50.904;4.200;2023-08-07T00:51:41;8.07;;;3.35;;
24157;SDS011;12316;50.904;4.200;2023-08-07T00:54:07;7.45;;;2.63;;
24157;SDS011;12316;50.904;4.200;2023-08-07T00:56:35;12.50;;;3.13;;
24157;SDS011;12316;50.904;4.200;2023-08-07T00:59:02;5.22;;;2.40;;
24157;SDS011;12316;50.904;4.200;2023-08-07T01:01:28;6.72;;;2.97;;
24157;SDS011;12316;50.904;4.200;2023-08-07T01:03:54;8.93;;;2.40;;
24157;SDS011;12316;50.904;4.200;2023-08-07T01:06:20;8.77;;;2.67;;
24157;SDS011;12316;50.904;4.200;2023-08-07T01:08:45;9.30;;;2.90;;
24157;SDS011;12316;50.904;4.200;2023-08-07T01:16:42;7.85;;;2.83;;
24157;SDS011;12316;50.904;4.200;2023-08-07T01:19:23;7.72;;;2.50;;
24157;SDS011;12316;50.904;4.200;2023-08-07T01:24:37;7.72;;;2.70;;
24157;SDS011;12316;50.904;4.200;2023-08-07T01:35:01;5.30;;;2.33;;
24157;SDS011;12316;50.904;4.200;2023-08-07T01:37:29;6.55;;;2.80;;
24157;SDS011;12316;50.904;4.200;2023-08-07T01:39:57;6.50;;;2.60;;
24157;SDS011;12316;50.904;4.200;2023-08-07T01:42:25;7.20;;;2.42;;
24157;SDS011;12316;50.904;4.200;2023-08-07T01:44:51;7.18;;;2.38;;
24157;SDS011;12316;50.904;4.200;2023-08-07T01:47:17;9.40;;;2.65;;
24157;SDS011;12316;50.904;4.200;2023-08-07T01:49:43;3.47;;;2.33;;
24157;SDS011;12316;50.904;4.200;2023-08-07T01:52:09;7.35;;;2.60;;
24157;SDS011;12316;50.904;4.200;2023-08-07T01:54:36;10.55;;;2.80;;
24157;SDS011;12316;50.904;4.200;2023-08-07T01:57:02;8.95;;;2.50;;
24157;SDS011;12316;50.904;4.200;2023-08-07T01:59:27;8.65;;;2.83;;
24157;SDS011;12316;50.904;4.200;2023-08-07T02:01:53;6.65;;;2.60;;
24157;SDS011;12316;50.904;4.200;2023-08-07T02:04:19;5.65;;;2.38;;
24157;SDS011;12316;50.904;4.200;2023-08-07T02:06:44;6.13;;;2.42;;
24157;SDS011;12316;50.904;4.200;2023-08-07T02:09:10;7.82;;;2.80;;
24157;SDS011;12316;50.904;4.200;2023-08-07T02:11:36;6.95;;;2.50;;
24157;SDS011;12316;50.904;4.200;2023-08-07T02:14:01;8.77;;;2.20;;
24157;SDS011;12316;50.904;4.200;2023-08-07T02:16:28;6.18;;;2.22;;
24157;SDS011;12316;50.904;4.200;2023-08-07T02:18:54;8.55;;;2.22;;
24157;SDS011;12316;50.904;4.200;2023-08-07T02:21:20;6.60;;;2.28;;
24157;SDS011;12316;50.904;4.200;2023-08-07T02:23:45;4.88;;;2.30;;
24157;SDS011;12316;50.904;4.200;2023-08-07T02:26:11;6.20;;;2.00;;
24157;SDS011;12316;50.904;4.200;2023-08-07T02:28:37;4.13;;;2.20;;
24157;SDS011;12316;50.904;4.200;2023-08-07T02:31:02;6.88;;;2.40;;
24157;SDS011;12316;50.904;4.200;2023-08-07T02:33:28;9.15;;;2.50;;
24157;SDS011;12316;50.904;4.200;2023-08-07T02:35:55;7.28;;;2.45;;
24157;SDS011;12316;50.904;4.200;2023-08-07T02:38:21;6.50;;;2.53;;
24157;SDS011;12316;50.904;4.200;2023-08-07T02:40:47;5.40;;;2.00;;
24157;SDS011;12316;50.904;4.200;2023-08-07T02:43:13;10.15;;;2.38;;
24157;SDS011;12316;50.904;4.200;2023-08-07T02:45:39;3.80;;;2.30;;
24157;SDS011;12316;50.904;4.200;2023-08-07T02:48:04;6.05;;;2.50;;
24157;SDS011;12316;50.904;4.200;2023-08-07T02:50:30;7.22;;;2.50;;
24157;SDS011;12316;50.904;4.200;2023-08-07T02:52:58;9.45;;;2.70;;
24157;SDS011;12316;50.904;4.200;2023-08-07T02:55:24;4.60;;;2.47;;
24157;SDS011;12316;50.904;4.200;2023-08-07T02:57:49;6.13;;;2.10;;
24157;SDS011;12316;50.904;4.200;2023-08-07T03:00:15;7.30;;;2.63;;
24157;SDS011;12316;50.904;4.200;2023-08-07T03:02:41;7.07;;;2.35;;
24157;SDS011;12316;50.904;4.200;2023-08-07T03:05:07;7.13;;;2.42;;
24157;SDS011;12316;50.904;4.200;2023-08-07T03:07:33;13.93;;;2.70;;
24157;SDS011;12316;50.904;4.200;2023-08-07T03:09:58;5.72;;;2.67;;
24157;SDS011;12316;50.904;4.200;2023-08-07T03:12:24;6.00;;;2.33;;
24157;SDS011;12316;50.904;4.200;2023-08-07T03:14:50;6.53;;;2.50;;
24157;SDS011;12316;50.904;4.200;2023-08-07T03:17:15;6.50;;;2.50;;
24157;SDS011;12316;50.904;4.200;2023-08-07T03:19:42;9.50;;;2.65;;
24157;SDS011;12316;50.904;4.200;2023-08-07T03:22:08;6.40;;;2.35;;
24157;SDS011;12316;50.904;4.200;2023-08-07T03:24:34;7.47;;;2.67;;
24157;SDS011;12316;50.904;4.200;2023-08-07T03:26:59;8.30;;;2.58;;
24157;SDS011;12316;50.904;4.200;2023-08-07T03:29:25;9.32;;;2.55;;
24157;SDS011;12316;50.904;4.200;2023-08-07T03:31:51;7.35;;;2.75;;
24157;SDS011;12316;50.904;4.200;2023-08-07T03:34:17;5.03;;;2.30;;
24157;SDS011;12316;50.904;4.200;2023-08-07T03:36:42;6.18;;;2.72;;
24157;SDS011;12316;50.904;4.200;2023-08-07T03:39:08;8.57;;;2.83;;
24157;SDS011;12316;50.904;4.200;2023-08-07T03:41:35;6.90;;;2.67;;
24157;SDS011;12316;50.904;4.200;2023-08-07T03:44:01;7.28;;;2.70;;
24157;SDS011;12316;50.904;4.200;2023-08-07T03:46:26;6.22;;;2.38;;
24157;SDS011;12316;50.904;4.200;2023-08-07T03:48:52;5.15;;;2.33;;
24157;SDS011;12316;50.904;4.200;2023-08-07T03:51:18;6.00;;;2.58;;
24157;SDS011;12316;50.904;4.200;2023-08-07T03:53:43;8.25;;;2.92;;
24157;SDS011;12316;50.904;4.200;2023-08-07T03:56:09;6.13;;;2.85;;
24157;SDS011;12316;50.904;4.200;2023-08-07T03:58:35;6.05;;;2.83;;
24157;SDS011;12316;50.904;4.200;2023-08-07T04:01:01;8.35;;;2.80;;
24157;SDS011;12316;50.904;4.200;2023-08-07T04:03:26;7.93;;;2.90;;
24157;SDS011;12316;50.904;4.200;2023-08-07T04:05:53;5.45;;;2.72;;
24157;SDS011;12316;50.904;4.200;2023-08-07T04:08:19;8.20;;;2.90;;
24157;SDS011;12316;50.904;4.200;2023-08-07T04:10:45;9.40;;;3.15;;
24157;SDS011;12316;50.904;4.200;2023-08-07T04:13:22;9.70;;;3.25;;
24157;SDS011;12316;50.904;4.200;2023-08-07T04:15:47;6.75;;;3.22;;
24157;SDS011;12316;50.904;4.200;2023-08-07T04:18:14;9.30;;;3.13;;
24157;SDS011;12316;50.904;4.200;2023-08-07T04:20:39;9.65;;;3.28;;
24157;SDS011;12316;50.904;4.200;2023-08-07T04:23:05;7.57;;;3.08;;
24157;SDS011;12316;50.904;4.200;2023-08-07T04:25:31;7.40;;;3.00;;
24157;SDS011;12316;50.904;4.200;2023-08-07T04:27:56;9.57;;;2.90;;
24157;SDS011;12316;50.904;4.200;2023-08-07T04:30:22;9.07;;;3.15;;
24157;SDS011;12316;50.904;4.200;2023-08-07T04:32:47;9.45;;;3.13;;
24157;SDS011;12316;50.904;4.200;2023-08-07T04:35:14;8.50;;;3.30;;
24157;SDS011;12316;50.904;4.200;2023-08-07T04:37:39;7.68;;;3.05;;
24157;SDS011;12316;50.904;4.200;2023-08-07T04:40:05;11.18;;;3.10;;
24157;SDS011;12316;50.904;4.200;2023-08-07T04:42:34;5.72;;;2.97;;
24157;SDS011;12316;50.904;4.200;2023-08-07T04:45:00;12.50;;;3.13;;
24157;SDS011;12316;50.904;4.200;2023-08-07T04:47:27;6.45;;;3.08;;
24157;SDS011;12316;50.904;4.200;2023-08-07T04:49:53;9.90;;;2.85;;
24157;SDS011;12316;50.904;4.200;2023-08-07T04:52:19;8.65;;;3.13;;
24157;SDS011;12316;50.904;4.200;2023-08-07T04:54:44;10.43;;;2.80;;
24157;SDS011;12316;50.904;4.200;2023-08-07T04:57:10;7.57;;;3.00;;
24157;SDS011;12316;50.904;4.200;2023-08-07T04:59:36;8.63;;;3.50;;
24157;SDS011;12316;50.904;4.200;2023-08-07T05:02:01;7.82;;;3.03;;
24157;SDS011;12316;50.904;4.200;2023-08-07T05:04:27;9.93;;;2.90;;
24157;SDS011;12316;50.904;4.200;2023-08-07T05:06:52;6.13;;;2.65;;
24157;SDS011;12316;50.904;4.200;2023-08-07T05:09:18;5.97;;;2.30;;
24157;SDS011;12316;50.904;4.200;2023-08-07T05:11:44;6.88;;;2.50;;
24157;SDS011;12316;50.904;4.200;2023-08-07T05:14:10;6.38;;;2.10;;
24157;SDS011;12316;50.904;4.200;2023-08-07T05:16:36;6.65;;;2.67;;
24157;SDS011;12316;50.904;4.200;2023-08-07T05:19:02;7.13;;;2.08;;
24157;SDS011;12316;50.904;4.200;2023-08-07T05:21:27;7.15;;;2.38;;
24157;SDS011;12316;50.904;4.200;2023-08-07T05:23:53;7.50;;;2.10;;
24157;SDS011;12316;50.904;4.200;2023-08-07T05:26:20;7.05;;;1.95;;
24157;SDS011;12316;50.904;4.200;2023-08-07T05:28:46;5.60;;;2.33;;
24157;SDS011;12316;50.904;4.200;2023-08-07T05:31:12;6.05;;;2.00;;
24157;SDS011;12316;50.904;4.200;2023-08-07T05:33:38;5.85;;;2.17;;
24157;SDS011;12316;50.904;4.200;2023-08-07T05:36:03;7.75;;;2.60;;
24157;SDS011;12316;50.904;4.200;2023-08-07T05:38:31;8.77;;;2.70;;
24157;SDS011;12316;50.904;4.200;2023-08-07T05:40:57;6.65;;;2.50;;
24157;SDS011;12316;50.904;4.200;2023-08-07T05:43:22;13.30;;;3.40;;
24157;SDS011;12316;50.904;4.200;2023-08-07T05:45:48;9.63;;;2.65;;
24157;SDS011;12316;50.904;4.200;2023-08-07T05:48:14;6.28;;;2.30;;
24157;SDS011;12316;50.904;4.200;2023-08-07T05:50:42;4.75;;;1.90;;
24157;SDS011;12316;50.904;4.200;2023-08-07T05:53:08;6.90;;;2.08;;
24157;SDS011;12316;50.904;4.200;2023-08-07T05:55:33;6.47;;;2.20;;
24157;SDS011;12316;50.904;4.200;2023-08-07T05:58:00;9.65;;;2.20;;
24157;SDS011;12316;50.904;4.200;2023-08-07T06:00:26;3.85;;;2.00;;
24157;SDS011;12316;50.904;4.200;2023-08-07T06:02:53;6.93;;;2.38;;
24157;SDS011;12316;50.904;4.200;2023-08-07T06:05:19;7.63;;;2.45;;
24157;SDS011;12316;50.904;4.200;2023-08-07T06:07:45;5.38;;;1.98;;
24157;SDS011;12316;50.904;4.200;2023-08-07T06:10:11;7.28;;;2.30;;
24157;SDS011;12316;50.904;4.200;2023-08-07T06:12:37;6.13;;;2.00;;
24157;SDS011;12316;50.904;4.200;2023-08-07T06:15:03;7.13;;;2.22;;
24157;SDS011;12316;50.904;4.200;2023-08-07T06:17:29;9.18;;;2.15;;
24157;SDS011;12316;50.904;4.200;2023-08-07T06:19:54;5.95;;;2.30;;
24157;SDS011;12316;50.904;4.200;2023-08-07T06:22:20;8.27;;;2.60;;
24157;SDS011;12316;50.904;4.200;2023-08-07T06:24:46;7.75;;;2.20;;
24157;SDS011;12316;50.904;4.200;2023-08-07T06:27:11;7.05;;;2.60;;
24157;SDS011;12316;50.904;4.200;2023-08-07T06:29:38;7.93;;;2.45;;
24157;SDS011;12316;50.904;4.200;2023-08-07T06:32:03;6.78;;;2.42;;
24157;SDS011;12316;50.904;4.200;2023-08-07T06:34:31;7.53;;;2.25;;
24157;SDS011;12316;50.904;4.200;2023-08-07T06:36:56;7.30;;;2.28;;
24157;SDS011;12316;50.904;4.200;2023-08-07T06:39:22;7.22;;;2.40;;
24157;SDS011;12316;50.904;4.200;2023-08-07T06:41:48;9.38;;;2.17;;
24157;SDS011;12316;50.904;4.200;2023-08-07T06:44:13;6.88;;;2.47;;
24157;SDS011;12316;50.904;4.200;2023-08-07T06:46:39;8.65;;;2.38;;
24157;SDS011;12316;50.904;4.200;2023-08-07T06:49:04;6.40;;;2.53;;
24157;SDS011;12316;50.904;4.200;2023-08-07T06:51:30;6.55;;;2.70;;
24157;SDS011;12316;50.904;4.200;2023-08-07T06:53:56;7.68;;;2.70;;
24157;SDS011;12316;50.904;4.200;2023-08-07T06:56:21;5.40;;;2.55;;
24157;SDS011;12316;50.904;4.200;2023-08-07T06:58:47;8.57;;;2.70;;
24157;SDS011;12316;50.904;4.200;2023-08-07T07:01:13;9.55;;;2.88;;
24157;SDS011;12316;50.904;4.200;2023-08-07T07:03:38;8.27;;;2.75;;
24157;SDS011;12316;50.904;4.200;2023-08-07T07:06:04;6.50;;;2.78;;
24157;SDS011;12316;50.904;4.200;2023-08-07T07:08:30;7.88;;;2.60;;
24157;SDS011;12316;50.904;4.200;2023-08-07T07:10:55;7.57;;;2.88;;
24157;SDS011;12316;50.904;4.200;2023-08-07T07:13:23;6.25;;;2.40;;
24157;SDS011;12316;50.904;4.200;2023-08-07T07:15:52;6.80;;;2.92;;
24157;SDS011;12316;50.904;4.200;2023-08-07T07:18:21;6.35;;;2.90;;
24157;SDS011;12316;50.904;4.200;2023-08-07T07:20:47;6.90;;;2.83;;
24157;SDS011;12316;50.904;4.200;2023-08-07T07:23:12;9.98;;;2.88;;
24157;SDS011;12316;50.904;4.200;2023-08-07T07:25:38;6.88;;;2.30;;
24157;SDS011;12316;50.904;4.200;2023-08-07T07:28:03;7.50;;;2.85;;
24157;SDS011;12316;50.904;4.200;2023-08-07T07:30:29;7.18;;;2.88;;
24157;SDS011;12316;50.904;4.200;2023-08-07T07:32:55;6.53;;;2.90;;
24157;SDS011;12316;50.904;4.200;2023-08-07T07:35:20;7.65;;;2.63;;
24157;SDS011;12316;50.904;4.200;2023-08-07T07:37:46;6.07;;;2.55;;
24157;SDS011;12316;50.904;4.200;2023-08-07T07:40:12;8.23;;;2.50;;
24157;SDS011;12316;50.904;4.200;2023-08-07T07:42:37;8.60;;;2.90;;
24157;SDS011;12316;50.904;4.200;2023-08-07T07:45:03;5.28;;;2.10;;
24157;SDS011;12316;50.904;4.200;2023-08-07T07:47:29;7.45;;;2.60;;
24157;SDS011;12316;50.904;4.200;2023-08-07T07:50:04;7.32;;;2.17;;
24157;SDS011;12316;50.904;4.200;2023-08-07T07:52:32;8.10;;;2.55;;
24157;SDS011;12316;50.904;4.200;2023-08-07T07:54:58;13.18;;;2.58;;
24157;SDS011;12316;50.904;4.200;2023-08-07T07:57:23;4.85;;;2.15;;
24157;SDS011;12316;50.904;4.200;2023-08-07T07:59:49;7.75;;;2.47;;
24157;SDS011;12316;50.904;4.200;2023-08-07T08:02:15;7.22;;;2.33;;
24157;SDS011;12316;50.904;4.200;2023-08-07T08:04:42;7.72;;;2.35;;
24157;SDS011;12316;50.904;4.200;2023-08-07T08:07:07;6.68;;;2.60;;
24157;SDS011;12316;50.904;4.200;2023-08-07T08:09:33;6.20;;;2.13;;
24157;SDS011;12316;50.904;4.200;2023-08-07T08:11:59;3.38;;;2.22;;
24157;SDS011;12316;50.904;4.200;2023-08-07T08:14:25;4.88;;;2.15;;
24157;SDS011;12316;50.904;4.200;2023-08-07T08:16:50;7.50;;;2.30;;
24157;SDS011;12316;50.904;4.200;2023-08-07T08:19:16;6.45;;;2.30;;
24157;SDS011;12316;50.904;4.200;2023-08-07T08:21:42;4.28;;;2.08;;
24157;SDS011;12316;50.904;4.200;2023-08-07T08:24:08;5.90;;;2.33;;
24157;SDS011;12316;50.904;4.200;2023-08-07T08:26:34;4.78;;;2.20;;
24157;SDS011;12316;50.904;4.200;2023-08-07T08:28:59;4.45;;;1.98;;
24157;SDS011;12316;50.904;4.200;2023-08-07T08:31:25;5.82;;;2.00;;
24157;SDS011;12316;50.904;4.200;2023-08-07T08:33:51;5.78;;;2.30;;
24157;SDS011;12316;50.904;4.200;2023-08-07T08:36:17;4.75;;;2.10;;
24157;SDS011;12316;50.904;4.200;2023-08-07T08:38:43;5.20;;;2.40;;
24157;SDS011;12316;50.904;4.200;2023-08-07T08:41:11;5.65;;;2.05;;
24157;SDS011;12316;50.904;4.200;2023-08-07T08:43:37;7.03;;;2.30;;
24157;SDS011;12316;50.904;4.200;2023-08-07T08:46:05;4.93;;;2.40;;
24157;SDS011;12316;50.904;4.200;2023-08-07T08:48:32;5.82;;;2.30;;
24157;SDS011;12316;50.904;4.200;2023-08-07T08:51:01;5.45;;;2.45;;
24157;SDS011;12316;50.904;4.200;2023-08-07T08:53:29;3.95;;;1.95;;
24157;SDS011;12316;50.904;4.200;2023-08-07T08:55:55;3.97;;;2.22;;
24157;SDS011;12316;50.904;4.200;2023-08-07T08:58:21;5.18;;;2.30;;
24157;SDS011;12316;50.904;4.200;2023-08-07T09:00:49;4.97;;;2.25;;
24157;SDS011;12316;50.904;4.200;2023-08-07T09:03:16;6.03;;;2.33;;
24157;SDS011;12316;50.904;4.200;2023-08-07T09:05:43;4.68;;;2.33;;
24157;SDS011;12316;50.904;4.200;2023-08-07T09:08:10;8.27;;;2.40;;
24157;SDS011;12316;50.904;4.200;2023-08-07T09:10:36;4.90;;;2.15;;
24157;SDS011;12316;50.904;4.200;2023-08-07T09:13:04;3.17;;;1.77;;
24157;SDS011;12316;50.904;4.200;2023-08-07T09:15:32;5.32;;;2.08;;
24157;SDS011;12316;50.904;4.200;2023-08-07T09:17:59;4.22;;;2.00;;
24157;SDS011;12316;50.904;4.200;2023-08-07T09:20:26;3.97;;;1.80;;
24157;SDS011;12316;50.904;4.200;2023-08-07T09:22:51;4.55;;;1.95;;
24157;SDS011;12316;50.904;4.200;2023-08-07T09:25:30;4.40;;;1.95;;
24157;SDS011;12316;50.904;4.200;2023-08-07T09:27:57;4.28;;;2.25;;
24157;SDS011;12316;50.904;4.200;2023-08-07T09:30:26;5.72;;;2.05;;
24157;SDS011;12316;50.904;4.200;2023-08-07T09:32:53;5.30;;;1.77;;
24157;SDS011;12316;50.904;4.200;2023-08-07T09:35:21;4.30;;;1.60;;
24157;SDS011;12316;50.904;4.200;2023-08-07T09:37:47;3.00;;;1.75;;
24157;SDS011;12316;50.904;4.200;2023-08-07T09:40:13;2.50;;;1.70;;
24157;SDS011;12316;50.904;4.200;2023-08-07T09:42:41;4.95;;;1.73;;
24157;SDS011;12316;50.904;4.200;2023-08-07T09:45:27;4.80;;;1.80;;
24157;SDS011;12316;50.904;4.200;2023-08-07T09:47:57;4.30;;;1.90;;
24157;SDS011;12316;50.904;4.200;2023-08-07T09:50:24;3.95;;;1.90;;
24157;SDS011;12316;50.904;4.200;2023-08-07T09:52:51;3.25;;;1.80;;
24157;SDS011;12316;50.904;4.200;2023-08-07T09:55:18;4.13;;;1.83;;
24157;SDS011;12316;50.904;4.200;2023-08-07T09:57:45;5.15;;;1.95;;
24157;SDS011;12316;50.904;4.200;2023-08-07T10:00:11;3.80;;;2.05;;
24157;SDS011;12316;50.904;4.200;2023-08-07T10:02:40;3.25;;;1.83;;
24157;SDS011;12316;50.904;4.200;2023-08-07T10:05:09;6.18;;;1.60;;
24157;SDS011;12316;50.904;4.200;2023-08-07T10:07:38;4.20;;;1.70;;
24157;SDS011;12316;50.904;4.200;2023-08-07T10:10:05;2.72;;;1.73;;
24157;SDS011;12316;50.904;4.200;2023-08-07T10:12:32;3.83;;;2.25;;
24157;SDS011;12316;50.904;4.200;2023-08-07T10:14:58;2.97;;;1.88;;
24157;SDS011;12316;50.904;4.200;2023-08-07T10:17:25;3.05;;;1.70;;
24157;SDS011;12316;50.904;4.200;2023-08-07T10:19:52;2.35;;;1.63;;
24157;SDS011;12316;50.904;4.200;2023-08-07T10:22:22;4.43;;;1.70;;
24157;SDS011;12316;50.904;4.200;2023-08-07T10:24:54;4.35;;;1.50;;
24157;SDS011;12316;50.904;4.200;2023-08-07T10:27:22;2.85;;;1.73;;
24157;SDS011;12316;50.904;4.200;2023-08-07T10:29:50;1.95;;;1.50;;
24157;SDS011;12316;50.904;4.200;2023-08-07T10:32:19;3.88;;;1.95;;
24157;SDS011;12316;50.904;4.200;2023-08-07T10:34:47;2.10;;;1.50;;
24157;SDS011;12316;50.904;4.200;2023-08-07T10:40:02;3.05;;;1.75;;
24157;SDS011;12316;50.904;4.200;2023-08-07T10:45:19;2.38;;;1.65;;
24157;SDS011;12316;50.904;4.200;2023-08-07T10:48:53;2.88;;;1.98;;
24157;SDS011;12316;50.904;4.200;2023-08-07T10:53:20;4.10;;;1.65;;
24157;SDS011;12316;50.904;4.200;2023-08-07T10:55:53;2.88;;;1.77;;
24157;SDS011;12316;50.904;4.200;2023-08-07T10:58:26;4.43;;;2.00;;
24157;SDS011;12316;50.904;4.200;2023-08-07T11:04:14;4.15;;;2.00;;
24157;SDS011;12316;50.904;4.200;2023-08-07T11:06:40;1.67;;;1.50;;
24157;SDS011;12316;50.904;4.200;2023-08-07T11:09:08;2.22;;;1.50;;
24157;SDS011;12316;50.904;4.200;2023-08-07T11:11:37;4.28;;;1.75;;
24157;SDS011;12316;50.904;4.200;2023-08-07T11:14:08;3.40;;;1.80;;
24157;SDS011;12316;50.904;4.200;2023-08-07T11:16:44;2.92;;;1.92;;
24157;SDS011;12316;50.904;4.200;2023-08-07T11:19:15;4.18;;;1.80;;
24157;SDS011;12316;50.904;4.200;2023-08-07T11:21:42;4.07;;;2.00;;
24157;SDS011;12316;50.904;4.200;2023-08-07T11:24:09;2.83;;;1.60;;
24157;SDS011;12316;50.904;4.200;2023-08-07T11:26:39;3.60;;;1.70;;
24157;SDS011;12316;50.904;4.200;2023-08-07T11:29:04;4.75;;;1.73;;
24157;SDS011;12316;50.904;4.200;2023-08-07T11:31:30;2.17;;;1.40;;
24157;SDS011;12316;50.904;4.200;2023-08-07T11:33:56;3.53;;;1.52;;
24157;SDS011;12316;50.904;4.200;2023-08-07T11:36:23;3.13;;;1.60;;
24157;SDS011;12316;50.904;4.200;2023-08-07T11:38:51;5.18;;;1.88;;
24157;SDS011;12316;50.904;4.200;2023-08-07T11:41:17;1.90;;;1.35;;
24157;SDS011;12316;50.904;4.200;2023-08-07T11:43:43;4.75;;;1.80;;
24157;SDS011;12316;50.904;4.200;2023-08-07T11:46:10;2.40;;;1.48;;
24157;SDS011;12316;50.904;4.200;2023-08-07T11:48:37;4.53;;;1.55;;
24157;SDS011;12316;50.904;4.200;2023-08-07T11:51:04;2.78;;;1.60;;
24157;SDS011;12316;50.904;4.200;2023-08-07T11:53:32;3.13;;;1.33;;
24157;SDS011;12316;50.904;4.200;2023-08-07T11:56:00;2.78;;;1.60;;
24157;SDS011;12316;50.904;4.200;2023-08-07T11:58:33;2.15;;;1.30;;
24157;SDS011;12316;50.904;4.200;2023-08-07T12:01:03;1.90;;;1.20;;
24157;SDS011;12316;50.904;4.200;2023-08-07T12:03:37;4.85;;;1.60;;
24157;SDS011;12316;50.904;4.200;2023-08-07T12:06:05;2.33;;;1.50;;
24157;SDS011;12316;50.904;4.200;2023-08-07T12:08:35;2.28;;;1.30;;
24157;SDS011;12316;50.904;4.200;2023-08-07T12:11:09;3.03;;;1.52;;
24157;SDS011;12316;50.904;4.200;2023-08-07T12:13:39;3.42;;;1.60;;
24157;SDS011;12316;50.904;4.200;2023-08-07T12:16:05;2.70;;;1.55;;
24157;SDS011;12316;50.904;4.200;2023-08-07T12:18:31;3.33;;;1.23;;
24157;SDS011;12316;50.904;4.200;2023-08-07T12:20:58;3.05;;;1.60;;
24157;SDS011;12316;50.904;4.200;2023-08-07T12:23:25;2.17;;;1.58;;
24157;SDS011;12316;50.904;4.200;2023-08-07T12:25:51;2.20;;;1.60;;
24157;SDS011;12316;50.904;4.200;2023-08-07T12:28:18;2.95;;;1.40;;
24157;SDS011;12316;50.904;4.200;2023-08-07T12:30:44;2.70;;;1.60;;
24157;SDS011;12316;50.904;4.200;2023-08-07T12:33:14;2.95;;;1.50;;
24157;SDS011;12316;50.904;4.200;2023-08-07T12:35:40;3.63;;;1.27;;
24157;SDS011;12316;50.904;4.200;2023-08-07T12:38:06;1.83;;;1.30;;
24157;SDS011;12316;50.904;4.200;2023-08-07T12:40:34;2.30;;;1.40;;
24157;SDS011;12316;50.904;4.200;2023-08-07T12:43:01;1.83;;;1.20;;
24157;SDS011;12316;50.904;4.200;2023-08-07T12:45:29;2.38;;;1.30;;
24157;SDS011;12316;50.904;4.200;2023-08-07T12:47:54;3.08;;;1.30;;
24157;SDS011;12316;50.904;4.200;2023-08-07T12:50:20;2.17;;;1.20;;
24157;SDS011;12316;50.904;4.200;2023-08-07T12:52:46;1.52;;;1.10;;
24157;SDS011;12316;50.904;4.200;2023-08-07T12:55:11;3.03;;;1.13;;
24157;SDS011;12316;50.904;4.200;2023-08-07T12:57:37;1.80;;;1.17;;
24157;SDS011;12316;50.904;4.200;2023-08-07T13:00:07;1.80;;;1.17;;
24157;SDS011;12316;50.904;4.200;2023-08-07T13:02:37;2.55;;;1.05;;
24157;SDS011;12316;50.904;4.200;2023-08-07T13:05:04;2.92;;;1.20;;
24157;SDS011;12316;50.904;4.200;2023-08-07T13:07:30;4.10;;;1.00;;
24157;SDS011;12316;50.904;4.200;2023-08-07T13:09:55;2.15;;;1.10;;
24157;SDS011;12316;50.904;4.200;2023-08-07T13:12:22;4.57;;;1.30;;
24157;SDS011;12316;50.904;4.200;2023-08-07T13:14:48;1.70;;;1.08;;
24157;SDS011;12316;50.904;4.200;2023-08-07T13:17:13;2.92;;;0.80;;
24157;SDS011;12316;50.904;4.200;2023-08-07T13:19:39;1.83;;;1.10;;
24157;SDS011;12316;50.904;4.200;2023-08-07T13:22:05;1.10;;;0.80;;
24157;SDS011;12316;50.904;4.200;2023-08-07T13:24:32;1.83;;;1.00;;
24157;SDS011;12316;50.904;4.200;2023-08-07T13:26:57;2.13;;;0.95;;
24157;SDS011;12316;50.904;4.200;2023-08-07T13:29:23;2.47;;;1.02;;
24157;SDS011;12316;50.904;4.200;2023-08-07T13:31:51;2.25;;;0.90;;
24157;SDS011;12316;50.904;4.200;2023-08-07T13:34:16;2.00;;;1.05;;
24157;SDS011;12316;50.904;4.200;2023-08-07T13:36:42;1.60;;;0.95;;
24157;SDS011;12316;50.904;4.200;2023-08-07T13:39:08;1.48;;;0.90;;
24157;SDS011;12316;50.904;4.200;2023-08-07T13:41:34;1.02;;;0.75;;
24157;SDS011;12316;50.904;4.200;2023-08-07T13:43:59;2.85;;;1.02;;
24157;SDS011;12316;50.904;4.200;2023-08-07T13:46:25;2.60;;;0.73;;
24157;SDS011;12316;50.904;4.200;2023-08-07T13:48:51;5.90;;;1.00;;
24157;SDS011;12316;50.904;4.200;2023-08-07T13:51:17;2.13;;;0.82;;
24157;SDS011;12316;50.904;4.200;2023-08-07T13:53:43;1.30;;;0.90;;
24157;SDS011;12316;50.904;4.200;2023-08-07T13:56:09;3.05;;;1.20;;
24157;SDS011;12316;50.904;4.200;2023-08-07T13:58:38;1.40;;;0.98;;
24157;SDS011;12316;50.904;4.200;2023-08-07T14:01:04;2.20;;;0.90;;
24157;SDS011;12316;50.904;4.200;2023-08-07T14:03:30;1.63;;;0.70;;
24157;SDS011;12316;50.904;4.200;2023-08-07T14:05:56;1.92;;;0.90;;
24157;SDS011;12316;50.904;4.200;2023-08-07T14:08:22;1.70;;;0.90;;
24157;SDS011;12316;50.904;4.200;2023-08-07T14:10:48;2.90;;;1.00;;
24157;SDS011;12316;50.904;4.200;2023-08-07T14:13:13;1.65;;;1.10;;
24157;SDS011;12316;50.904;4.200;2023-08-07T14:15:39;2.92;;;0.90;;
24157;SDS011;12316;50.904;4.200;2023-08-07T14:18:05;2.83;;;0.95;;
24157;SDS011;12316;50.904;4.200;2023-08-07T14:20:31;2.50;;;0.90;;
24157;SDS011;12316;50.904;4.200;2023-08-07T14:22:57;3.65;;;0.88;;
24157;SDS011;12316;50.904;4.200;2023-08-07T14:25:23;2.00;;;0.80;;
24157;SDS011;12316;50.904;4.200;2023-08-07T14:27:48;2.00;;;0.80;;
24157;SDS011;12316;50.904;4.200;2023-08-07T14:30:15;2.00;;;0.90;;
24157;SDS011;12316;50.904;4.200;2023-08-07T14:32:41;1.95;;;0.80;;
24157;SDS011;12316;50.904;4.200;2023-08-07T14:35:11;2.60;;;1.10;;
24157;SDS011;12316;50.904;4.200;2023-08-07T14:37:38;1.85;;;0.90;;
24157;SDS011;12316;50.904;4.200;2023-08-07T14:40:05;2.45;;;1.00;;
24157;SDS011;12316;50.904;4.200;2023-08-07T14:42:31;4.75;;;1.02;;
24157;SDS011;12316;50.904;4.200;2023-08-07T14:44:57;1.50;;;0.90;;
24157;SDS011;12316;50.904;4.200;2023-08-07T14:47:23;2.92;;;1.00;;
24157;SDS011;12316;50.904;4.200;2023-08-07T14:49:50;1.33;;;0.77;;
24157;SDS011;12316;50.904;4.200;2023-08-07T14:52:16;3.13;;;1.30;;
24157;SDS011;12316;50.904;4.200;2023-08-07T14:54:42;3.13;;;1.38;;
24157;SDS011;12316;50.904;4.200;2023-08-07T14:57:07;2.08;;;0.80;;
24157;SDS011;12316;50.904;4.200;2023-08-07T14:59:33;2.17;;;1.20;;
24157;SDS011;12316;50.904;4.200;2023-08-07T15:01:59;2.17;;;0.80;;
24157;SDS011;12316;50.904;4.200;2023-08-07T15:04:25;2.35;;;0.90;;
24157;SDS011;12316;50.904;4.200;2023-08-07T15:06:51;2.88;;;1.00;;
24157;SDS011;12316;50.904;4.200;2023-08-07T15:09:16;3.10;;;1.02;;
24157;SDS011;12316;50.904;4.200;2023-08-07T15:11:44;3.40;;;0.77;;